Nearby METAR Reports

 

KSJC - San Jose, California, USA
Distance from station: NE 9mi, 14km
Updated: 07/20/2024 7:53pm
Few Clouds
Few Clouds
 Wind from N
Wind: N 12 mph , 19 km/h
Temperature: 79°F , 26°C
Dew Point: 55°F , 13°C
Humidity: 45%
Barometer: 1013.2 hPa
Clouds: Few Clouds
Visibility: 10 miles , 16 km
Cloud details: Few Clouds 400 ft
2024/07/21 00:53 KSJC 210053Z 35010KT 10SM FEW004 26/13 A2992 RMK AO2 SLP131 FU FEW004 T02560133
KNUQ - Moffett Nas/Mtn, California, USA
Distance from station: N 9mi, 14km
Updated: 07/20/2024 8:35pm
Clear
Clear
 Wind from N
Wind: N 14 mph , 22 km/h
Temperature: 70°F , 21°C
Dew Point: 59°F , 15°C
Humidity: 69%
Barometer: 1013.5 hPa
Clouds: Clear
Visibility: 10 miles , 16 km
2024/07/21 01:35 KNUQ 210135Z AUTO 35012KT 10SM CLR 21/15 A2993 RMK AO2
 
KPAO - Palo Alto, California, USA
Distance from station: NNW 14mi, 23km
Updated: 07/20/2024 5:47pm
NOT Current
Clear
Clear
 Wind from N
Wind: N 18 mph , 30 km/h
Temperature: 75°F , 24°C
Dew Point: 61°F , 16°C
Humidity: 61%
Barometer: 1013.2 hPa
Clouds: Clear
Visibility: 10 miles , 16 km
2024/07/20 22:47 KPAO 202247Z 35016KT 10SM SKC 24/16 A2992
KRHV - San Jose/Reid, California, USA
Distance from station: ENE 12mi, 19km
Updated: 07/20/2024 6:47pm
NOT Current
Clear
Clear
 Wind from WNW
Wind: WNW 14 mph , 22 km/h
Temperature: 82°F , 28°C
Heat Index: 82°F , 28°C
Dew Point: 57°F , 14°C
Humidity: 42%
Barometer: 1012.9 hPa
Clouds: Clear
Visibility: 10 miles , 16 km
2024/07/20 23:47 KRHV 202347Z 30012KT 10SM SKC 28/14 A2991
 
KOAK - Oakland, California, USA
Distance from station: NNW 31mi, 50km
Updated: 07/20/2024 7:53pm
Few Clouds
Few Clouds
 Wind from W
Wind: W 14 mph , 22 km/h
Temperature: 68°F , 20°C
Dew Point: 55°F , 13°C
Humidity: 64%
Barometer: 1013.2 hPa
Clouds: Few Clouds
Visibility: 8 miles , 13 km
Cloud details: Few Clouds 900 ft
2024/07/21 00:53 KOAK 210053Z 26012KT 8SM FEW009 20/13 A2992 RMK AO2 PK WND 29027/0013 SLP132 T02000133
KSQL - San Carlos Airpo, California, USA
Distance from station: NW 21mi, 34km
Updated: 07/20/2024 6:47pm
NOT Current
Clear
Clear
 Wind from W
Wind: W 16 mph , 26 km/h
Temperature: 72°F , 22°C
Dew Point: 54°F , 12°C
Humidity: 53%
Barometer: 1013.5 hPa
Clouds: Clear
Visibility: 10 miles , 16 km
2024/07/20 23:47 KSQL 202347Z 26014KT 10SM CLR 22/12 A2993
 
KSFO - San Francisco, California, USA
Distance from station: NW 30mi, 49km
Updated: 07/20/2024 7:56pm
Few Clouds
Few Clouds
 Wind from W
Wind: W 25 mph , 41 km/h, Gust: 36 mph , 57 km/h
Temperature: 64°F , 18°C
Dew Point: 54°F , 12°C
Humidity: 68%
Barometer: 1013.2 hPa
Clouds: Few Clouds
Visibility: 10 miles , 16 km
Cloud details: Few Clouds 900 ft
Few Clouds 18000 ft
2024/07/21 00:56 KSFO 210056Z 28022G31KT 10SM FEW009 FEW180 18/12 A2992 RMK AO2 PK WND 28034/0044 SLP131 T01830122 $
KE16 - San Martin, California, USA
Distance from station: ESE 27mi, 43km
Updated: 07/20/2024 8:35pm
Clear
Clear
 Wind from SE
Wind: SE 13 mph , 20 km/h
Temperature: 75°F , 24°C
Dew Point: 55°F , 13°C
Humidity: 50%
Barometer: 1013.9 hPa
Clouds: Clear
Visibility: 10 miles , 16 km
2024/07/21 01:35 KE16 210135Z AUTO 14011KT 10SM CLR 24/13 A2994 RMK AO2 PWINO PNO
 
KWVI - Watsonville, California, USA
Distance from station: SSE 27mi, 44km
Updated: 07/20/2024 7:53pm
Clear
Clear
 Wind from S
Wind: S 8 mph , 13 km/h
Temperature: 66°F , 19°C
Dew Point: 55°F , 13°C
Humidity: 68%
Barometer: 1014.6 hPa
Clouds: Clear
Visibility: 10 miles , 16 km
2024/07/21 00:53 KWVI 210053Z AUTO 17007KT 10SM CLR 19/13 A2996 RMK AO2 SLP145 T01940133
KHAF - Half Moon Bay, California, USA
Distance from station: WNW 31mi, 50km
Updated: 07/20/2024 8:35pm
Mist, Mostly cloudy
Mist, Mostly cloudy
 Wind from NNW
Wind: NNW 13 mph , 20 km/h
Temperature: 59°F , 15°C
Dew Point: 57°F , 14°C
Humidity: 94%
Barometer: 1015.2 hPa
Summary: Mist
Clouds: Mostly cloudy
Visibility: 5 miles , 8 km
Cloud details: Mostly cloudy 900 ft
Mostly cloudy 1300 ft
2024/07/21 01:35 KHAF 210135Z AUTO 33011KT 5SM BR BKN009 BKN013 15/14 A2998 RMK AO2
 
KHWD - Hayward, California, USA
Distance from station: N 28mi, 44km
Updated: 07/20/2024 7:54pm
Clear
Clear
 Wind from WSW
Wind: WSW 7 mph , 11 km/h
Temperature: 70°F , 21°C
Dew Point: 57°F , 14°C
Humidity: 64%
Barometer: 1013.2 hPa
Clouds: Clear
Visibility: 10 miles , 16 km
2024/07/21 00:54 KHWD 210054Z 25006KT 10SM CLR 21/14 A2992 RMK AO2 SLP140 T02110139
KLVK - Livermore, California, USA
Distance from station: NNE 31mi, 51km
Updated: 07/20/2024 7:53pm
Clear
Clear
 Wind from W
Wind: W 9 mph , 15 km/h
Temperature: 82°F , 28°C
Heat Index: 81°F , 27°C
Dew Point: 55°F , 13°C
Humidity: 40%
Barometer: 1011.9 hPa
Clouds: Clear
Visibility: 10 miles , 16 km
2024/07/21 00:53 KLVK 210053Z 28008KT 10SM CLR 28/13 A2988 RMK AO2 SLP112 T02830133 $